Time;durP1;ratioP1;P1;durP2;ratioP2;P2;SDS_P1;SDS_P2;PMS_P1;PMS_P2;Temp;Humidity;BMP_temperature;BMP_pressure;BME280_temperature;BME280_humidity;BME280_pressure;Samples;Min_cycle;Max_cycle;Signal;HPM_P1;HPM_P2
2022/11/10 00:02:17;;;;;;;1.30;1.30;;;;;;;;;;4951231;28;20287;-51
2022/11/10 00:04:43;;;;;;;1.20;1.20;;;;;;;;;;4955238;28;20229;-51
2022/11/10 00:07:09;;;;;;;1.30;1.30;;;;;;;;;;4949649;28;20217;-50
2022/11/10 00:09:35;;;;;;;1.30;1.30;;;;;;;;;;4951166;28;20332;-51
2022/11/10 00:12:00;;;;;;;1.37;1.37;;;;;;;;;;4954677;28;20272;-51
2022/11/10 00:17:11;;;;;;;1.33;1.33;;;;;;;;;;4959921;28;20778;-51
2022/11/10 00:19:37;;;;;;;1.20;1.20;;;;;;;;;;4965203;28;20488;-52
2022/11/10 00:22:03;;;;;;;1.20;1.20;;;;;;;;;;4924119;28;20278;-51
2022/11/10 00:24:29;;;;;;;1.50;1.50;;;;;;;;;;4954961;28;20254;-51
2022/11/10 00:26:55;;;;;;;1.30;1.30;;;;;;;;;;4946851;28;20314;-52
2022/11/10 00:29:21;;;;;;;1.40;1.40;;;;;;;;;;4969879;28;20712;-52
2022/11/10 00:31:47;;;;;;;1.30;1.30;;;;;;;;;;4961444;28;20853;-51
2022/11/10 00:34:14;;;;;;;1.50;1.50;;;;;;;;;;4956033;28;20218;-51
2022/11/10 00:36:40;;;;;;;1.50;1.50;;;;;;;;;;4928234;28;20814;-51
2022/11/10 00:39:06;;;;;;;1.40;1.40;;;;;;;;;;4958570;28;20626;-51
2022/11/10 00:41:32;;;;;;;1.30;1.30;;;;;;;;;;4953799;28;20224;-51
2022/11/10 00:43:58;;;;;;;1.23;1.23;;;;;;;;;;4950759;28;20222;-51
2022/11/10 00:46:24;;;;;;;1.17;1.17;;;;;;;;;;4957979;28;20510;-51
2022/11/10 00:48:50;;;;;;;1.20;1.20;;;;;;;;;;4966961;28;20328;-51
2022/11/10 00:51:23;;;;;;;1.13;1.13;;;;;;;;;;4945491;28;20303;-53
2022/11/10 00:53:49;;;;;;;1.30;1.30;;;;;;;;;;4952400;28;20229;-52
2022/11/10 00:56:15;;;;;;;1.40;1.40;;;;;;;;;;4967442;28;20225;-51
2022/11/10 00:58:41;;;;;;;1.40;1.40;;;;;;;;;;4968548;28;20221;-51
2022/11/10 01:01:07;;;;;;;1.37;1.37;;;;;;;;;;4967282;28;20277;-53
2022/11/10 01:03:33;;;;;;;1.30;1.30;;;;;;;;;;4968853;28;20282;-51
2022/11/10 01:05:59;;;;;;;1.43;1.43;;;;;;;;;;4971810;28;21097;-51
2022/11/10 01:08:25;;;;;;;1.47;1.47;;;;;;;;;;4966812;28;20248;-52
2022/11/10 01:10:51;;;;;;;1.40;1.40;;;;;;;;;;4953631;28;21859;-51
2022/11/10 01:13:16;;;;;;;1.30;1.30;;;;;;;;;;4959744;28;20234;-52
2022/11/10 01:15:42;;;;;;;1.30;1.30;;;;;;;;;;4956222;28;20227;-51
2022/11/10 01:18:08;;;;;;;1.30;1.30;;;;;;;;;;4969346;28;20237;-51
2022/11/10 01:20:34;;;;;;;1.40;1.40;;;;;;;;;;4965145;28;20273;-51
2022/11/10 01:23:01;;;;;;;1.20;1.20;;;;;;;;;;4971368;28;20222;-51
2022/11/10 01:25:26;;;;;;;1.53;1.53;;;;;;;;;;4963176;28;20747;-51
2022/11/10 01:27:52;;;;;;;1.20;1.20;;;;;;;;;;4962123;28;20260;-52
2022/11/10 01:30:18;;;;;;;1.20;1.20;;;;;;;;;;4959464;28;20230;-51
2022/11/10 01:32:44;;;;;;;1.40;1.40;;;;;;;;;;4957138;28;20231;-52
2022/11/10 01:35:10;;;;;;;1.40;1.40;;;;;;;;;;4970095;28;20238;-52
2022/11/10 01:37:36;;;;;;;1.30;1.30;;;;;;;;;;4959420;28;20290;-51
2022/11/10 01:40:03;;;;;;;1.43;1.43;;;;;;;;;;4945578;28;20261;-51
2022/11/10 01:42:40;;;;;;;1.33;1.33;;;;;;;;;;4959625;28;20847;-51
2022/11/10 01:45:24;;;;;;;1.30;1.30;;;;;;;;;;4956734;28;21164;-51
2022/11/10 01:47:51;;;;;;;1.50;1.50;;;;;;;;;;4949786;28;20245;-51
2022/11/10 01:50:18;;;;;;;1.50;1.50;;;;;;;;;;4968058;28;20744;-51
2022/11/10 01:52:44;;;;;;;1.30;1.30;;;;;;;;;;4958755;28;20563;-52
2022/11/10 01:55:09;;;;;;;1.30;1.30;;;;;;;;;;4950716;28;20776;-51
2022/11/10 01:57:35;;;;;;;1.20;1.20;;;;;;;;;;4935791;28;20222;-52
2022/11/10 02:00:01;;;;;;;1.50;1.50;;;;;;;;;;4969251;28;20227;-52
2022/11/10 02:02:46;;;;;;;1.30;1.30;;;;;;;;;;4959004;28;20230;-52
2022/11/10 02:05:12;;;;;;;1.50;1.50;;;;;;;;;;4964525;28;20269;-53
2022/11/10 02:07:38;;;;;;;1.30;1.30;;;;;;;;;;4953061;28;20218;-52
2022/11/10 02:10:04;;;;;;;1.30;1.30;;;;;;;;;;4936305;28;20243;-52
2022/11/10 02:12:36;;;;;;;1.30;1.30;;;;;;;;;;4964632;28;21050;-52
2022/11/10 02:15:06;;;;;;;2.30;2.20;;;;;;;;;;4959888;28;20807;-51
2022/11/10 02:17:31;;;;;;;2.40;2.30;;;;;;;;;;4943732;28;20227;-51
2022/11/10 02:19:58;;;;;;;2.30;2.20;;;;;;;;;;4968592;28;20231;-52
2022/11/10 02:22:24;;;;;;;2.33;2.23;;;;;;;;;;4966595;28;20230;-52
2022/11/10 02:24:50;;;;;;;2.50;2.40;;;;;;;;;;4952055;28;20238;-51
2022/11/10 02:27:16;;;;;;;1.20;1.20;;;;;;;;;;4959020;28;20225;-51
2022/11/10 02:29:42;;;;;;;1.23;1.23;;;;;;;;;;4955996;28;20311;-51
2022/11/10 02:32:08;;;;;;;1.30;1.30;;;;;;;;;;4963164;28;20234;-52
2022/11/10 02:34:34;;;;;;;1.30;1.30;;;;;;;;;;4963242;28;20321;-51
2022/11/10 02:37:00;;;;;;;1.30;1.30;;;;;;;;;;4962625;28;20906;-52
2022/11/10 02:39:26;;;;;;;1.20;1.20;;;;;;;;;;4950386;28;21012;-51
2022/11/10 02:41:52;;;;;;;1.30;1.30;;;;;;;;;;4952778;28;20230;-52
2022/11/10 02:44:18;;;;;;;1.40;1.40;;;;;;;;;;4959847;28;20693;-52
2022/11/10 02:46:44;;;;;;;1.50;1.50;;;;;;;;;;4958164;28;20227;-51
2022/11/10 02:49:10;;;;;;;1.37;1.37;;;;;;;;;;4963259;28;20232;-52
2022/11/10 02:51:36;;;;;;;1.40;1.40;;;;;;;;;;4958328;28;20320;-52
2022/11/10 02:54:02;;;;;;;1.30;1.30;;;;;;;;;;4965236;28;20651;-51
2022/11/10 02:56:28;;;;;;;1.30;1.30;;;;;;;;;;4957394;28;20320;-52
2022/11/10 02:58:53;;;;;;;1.40;1.40;;;;;;;;;;4968483;28;20250;-52
2022/11/10 03:01:19;;;;;;;1.50;1.50;;;;;;;;;;4966211;28;20598;-52
2022/11/10 03:03:45;;;;;;;1.47;1.47;;;;;;;;;;4964659;28;20767;-51
2022/11/10 03:06:11;;;;;;;1.50;1.50;;;;;;;;;;4956101;28;20349;-51
2022/11/10 03:08:38;;;;;;;1.27;1.27;;;;;;;;;;4952027;28;20653;-51
2022/11/10 03:11:07;;;;;;;1.20;1.20;;;;;;;;;;4959617;28;20238;-51
2022/11/10 03:13:33;;;;;;;1.20;1.20;;;;;;;;;;4966618;28;20244;-51
2022/11/10 03:15:58;;;;;;;1.37;1.37;;;;;;;;;;4971798;28;20223;-52
2022/11/10 03:18:24;;;;;;;1.30;1.30;;;;;;;;;;4975719;28;20752;-52
2022/11/10 03:20:50;;;;;;;1.30;1.30;;;;;;;;;;4974301;28;20832;-51
2022/11/10 03:23:17;;;;;;;1.30;1.30;;;;;;;;;;4972834;28;20233;-51
2022/11/10 03:25:43;;;;;;;1.20;1.20;;;;;;;;;;4947664;28;20308;-51
2022/11/10 03:28:09;;;;;;;1.23;1.23;;;;;;;;;;4964593;28;20566;-53
2022/11/10 03:30:35;;;;;;;1.20;1.20;;;;;;;;;;4958659;28;20287;-52
2022/11/10 03:33:01;;;;;;;1.20;1.20;;;;;;;;;;4955198;28;20751;-51
2022/11/10 03:35:27;;;;;;;1.30;1.30;;;;;;;;;;4950789;28;20238;-51
2022/11/10 03:37:53;;;;;;;1.30;1.30;;;;;;;;;;4959833;28;20226;-51
2022/11/10 03:40:19;;;;;;;1.20;1.20;;;;;;;;;;4975649;28;20222;-52
2022/11/10 03:42:45;;;;;;;1.23;1.23;;;;;;;;;;4960631;28;20224;-52
2022/11/10 03:45:12;;;;;;;1.30;1.30;;;;;;;;;;4958892;28;20242;-51
2022/11/10 03:47:38;;;;;;;1.00;1.00;;;;;;;;;;4957199;28;20313;-51
2022/11/10 03:50:04;;;;;;;1.40;1.40;;;;;;;;;;4965179;28;20229;-51
2022/11/10 03:52:30;;;;;;;1.20;1.20;;;;;;;;;;4955496;28;20234;-53
2022/11/10 03:54:56;;;;;;;1.20;1.20;;;;;;;;;;4962965;28;20238;-51
2022/11/10 03:57:22;;;;;;;1.30;1.30;;;;;;;;;;4957230;28;20233;-52
2022/11/10 03:59:48;;;;;;;1.10;1.10;;;;;;;;;;4963158;28;20468;-51
2022/11/10 04:02:14;;;;;;;1.30;1.30;;;;;;;;;;4948148;28;20236;-51
2022/11/10 04:10:09;;;;;;;1.30;1.30;;;;;;;;;;4951550;28;20236;-51
2022/11/10 04:18:19;;;;;;;1.20;1.20;;;;;;;;;;4943257;28;20747;-51
2022/11/10 04:20:45;;;;;;;1.30;1.30;;;;;;;;;;4964025;28;20241;-52
2022/11/10 04:23:27;;;;;;;1.40;1.40;;;;;;;;;;4972446;28;20752;-51
2022/11/10 04:28:45;;;;;;;1.57;1.57;;;;;;;;;;4943324;28;20901;-51
2022/11/10 04:31:11;;;;;;;1.40;1.40;;;;;;;;;;4941636;28;20234;-53
2022/11/10 04:33:37;;;;;;;1.30;1.30;;;;;;;;;;4958514;28;20632;-52
2022/11/10 04:36:03;;;;;;;1.30;1.30;;;;;;;;;;4968934;28;20226;-52
2022/11/10 04:38:29;;;;;;;1.30;1.30;;;;;;;;;;4950992;28;21492;-50
2022/11/10 04:40:55;;;;;;;1.40;1.40;;;;;;;;;;4960922;28;20232;-51
2022/11/10 04:43:21;;;;;;;1.33;1.33;;;;;;;;;;4955687;28;21798;-51
2022/11/10 04:45:47;;;;;;;1.47;1.47;;;;;;;;;;4953793;28;20337;-51
2022/11/10 04:48:13;;;;;;;1.50;1.50;;;;;;;;;;4956035;28;20270;-51
2022/11/10 04:50:39;;;;;;;1.20;1.20;;;;;;;;;;4963409;28;20608;-52
2022/11/10 04:53:05;;;;;;;1.30;1.30;;;;;;;;;;4951056;28;20678;-52
2022/11/10 04:55:31;;;;;;;2.50;2.40;;;;;;;;;;4952221;28;20227;-51
2022/11/10 04:57:56;;;;;;;2.43;2.33;;;;;;;;;;4952558;28;20287;-52
2022/11/10 05:00:22;;;;;;;2.60;2.50;;;;;;;;;;4953914;28;20777;-52
2022/11/10 05:02:48;;;;;;;2.50;2.40;;;;;;;;;;4954799;28;20580;-52
2022/11/10 05:05:14;;;;;;;2.43;2.33;;;;;;;;;;4948045;28;21035;-51
2022/11/10 05:07:40;;;;;;;2.60;2.50;;;;;;;;;;4963017;28;20225;-52
2022/11/10 05:10:06;;;;;;;2.80;2.70;;;;;;;;;;4951269;28;20242;-51
2022/11/10 05:12:32;;;;;;;2.90;2.80;;;;;;;;;;4965113;28;20229;-51
2022/11/10 05:14:58;;;;;;;2.60;2.50;;;;;;;;;;4951921;28;20234;-51
2022/11/10 05:17:24;;;;;;;2.80;2.70;;;;;;;;;;4941189;28;20234;-51
2022/11/10 05:19:50;;;;;;;2.60;2.50;;;;;;;;;;4945123;28;20371;-51
2022/11/10 05:22:16;;;;;;;2.97;2.87;;;;;;;;;;4951834;28;20222;-51
2022/11/10 05:24:42;;;;;;;2.50;2.40;;;;;;;;;;4951187;28;20276;-52
2022/11/10 05:27:08;;;;;;;2.50;2.40;;;;;;;;;;4968518;28;20226;-52
2022/11/10 05:29:34;;;;;;;2.30;2.20;;;;;;;;;;4949433;28;20223;-51
2022/11/10 05:32:00;;;;;;;2.60;2.50;;;;;;;;;;4923422;28;20358;-51
2022/11/10 05:34:26;;;;;;;2.57;2.47;;;;;;;;;;4963818;28;20238;-50
2022/11/10 05:36:52;;;;;;;2.10;2.00;;;;;;;;;;4956293;28;20626;-51
2022/11/10 05:39:18;;;;;;;2.50;2.40;;;;;;;;;;4979718;28;20612;-51
2022/11/10 05:41:44;;;;;;;2.30;2.20;;;;;;;;;;4956643;28;20600;-51
2022/11/10 05:44:10;;;;;;;2.20;2.10;;;;;;;;;;4967089;28;20226;-51
2022/11/10 05:46:35;;;;;;;2.40;2.30;;;;;;;;;;4951823;28;20231;-51
2022/11/10 05:49:02;;;;;;;2.30;2.20;;;;;;;;;;4943756;28;20753;-51
2022/11/10 05:51:28;;;;;;;2.37;2.27;;;;;;;;;;4940971;28;20232;-52
2022/11/10 05:53:54;;;;;;;2.60;2.50;;;;;;;;;;4957883;28;20698;-52
2022/11/10 05:56:19;;;;;;;2.70;2.60;;;;;;;;;;4970111;28;20582;-50
2022/11/10 05:58:45;;;;;;;2.50;2.40;;;;;;;;;;4942685;28;20725;-50
2022/11/10 06:01:11;;;;;;;1.40;1.40;;;;;;;;;;4938231;28;20252;-51
2022/11/10 06:03:37;;;;;;;1.23;1.23;;;;;;;;;;4944986;28;20232;-50
2022/11/10 06:06:03;;;;;;;1.40;1.40;;;;;;;;;;4945359;28;20235;-52
2022/11/10 06:08:29;;;;;;;1.40;1.40;;;;;;;;;;4936010;28;20629;-50
2022/11/10 06:10:55;;;;;;;1.50;1.50;;;;;;;;;;4947731;28;20245;-52
2022/11/10 06:13:21;;;;;;;1.40;1.40;;;;;;;;;;4960489;28;20234;-52
2022/11/10 06:15:47;;;;;;;1.50;1.50;;;;;;;;;;4958513;28;20227;-51
2022/11/10 06:18:13;;;;;;;1.40;1.40;;;;;;;;;;4963946;28;20265;-52
2022/11/10 06:20:39;;;;;;;1.60;1.60;;;;;;;;;;4963094;28;20313;-51
2022/11/10 06:23:09;;;;;;;1.50;1.50;;;;;;;;;;4942921;28;20318;-51
2022/11/10 06:25:35;;;;;;;1.70;1.70;;;;;;;;;;4929068;28;21182;-51
2022/11/10 06:28:01;;;;;;;1.50;1.50;;;;;;;;;;4958581;28;20591;-52
2022/11/10 06:30:27;;;;;;;1.60;1.60;;;;;;;;;;4960012;28;20293;-53
2022/11/10 06:32:53;;;;;;;1.70;1.70;;;;;;;;;;4953976;28;20245;-53
2022/11/10 06:35:19;;;;;;;1.57;1.57;;;;;;;;;;4946929;28;20227;-51
2022/11/10 06:37:45;;;;;;;1.50;1.50;;;;;;;;;;4972742;28;20265;-51
2022/11/10 06:40:12;;;;;;;1.37;1.37;;;;;;;;;;4958979;28;20254;-51
2022/11/10 06:42:39;;;;;;;1.53;1.53;;;;;;;;;;4969459;28;20250;-51
2022/11/10 06:45:05;;;;;;;1.30;1.30;;;;;;;;;;4970996;28;20241;-51
2022/11/10 06:47:31;;;;;;;1.50;1.50;;;;;;;;;;4973307;28;20225;-51
2022/11/10 06:49:57;;;;;;;1.40;1.40;;;;;;;;;;4976541;28;20388;-51
2022/11/10 06:52:23;;;;;;;1.60;1.60;;;;;;;;;;4963810;28;20237;-51
2022/11/10 06:54:49;;;;;;;1.50;1.50;;;;;;;;;;4972989;28;20744;-51
2022/11/10 06:57:14;;;;;;;1.50;1.50;;;;;;;;;;4965553;28;20246;-51
2022/11/10 06:59:40;;;;;;;1.40;1.40;;;;;;;;;;4976038;28;20780;-51
2022/11/10 07:02:09;;;;;;;1.50;1.50;;;;;;;;;;4981070;28;20316;-51
2022/11/10 07:04:35;;;;;;;1.50;1.50;;;;;;;;;;4938520;28;20229;-51
2022/11/10 07:07:01;;;;;;;1.60;1.60;;;;;;;;;;4977750;28;20295;-51
2022/11/10 07:09:27;;;;;;;1.40;1.40;;;;;;;;;;4962353;28;20282;-51
2022/11/10 07:11:53;;;;;;;1.30;1.30;;;;;;;;;;4964495;28;20783;-51
2022/11/10 07:14:19;;;;;;;1.30;1.30;;;;;;;;;;4967754;28;20696;-51
2022/11/10 07:16:45;;;;;;;1.33;1.33;;;;;;;;;;4958217;28;20228;-51
2022/11/10 07:19:11;;;;;;;1.40;1.40;;;;;;;;;;4969591;28;20227;-52
2022/11/10 07:21:37;;;;;;;1.30;1.30;;;;;;;;;;4945603;28;20217;-51
2022/11/10 07:24:03;;;;;;;1.20;1.20;;;;;;;;;;4956373;28;20222;-51
2022/11/10 07:26:29;;;;;;;1.27;1.27;;;;;;;;;;4945374;28;26444;-51
2022/11/10 07:28:54;;;;;;;1.30;1.30;;;;;;;;;;4966091;28;20521;-51
2022/11/10 07:31:20;;;;;;;1.20;1.20;;;;;;;;;;4963992;28;20590;-51
2022/11/10 07:33:46;;;;;;;1.10;1.10;;;;;;;;;;4963717;28;20780;-51
2022/11/10 07:36:12;;;;;;;1.20;1.20;;;;;;;;;;4947412;28;20671;-51
2022/11/10 07:38:38;;;;;;;1.30;1.30;;;;;;;;;;4968866;28;20767;-51
2022/11/10 07:41:05;;;;;;;1.30;1.30;;;;;;;;;;4962732;28;20228;-51
2022/11/10 07:43:30;;;;;;;1.30;1.30;;;;;;;;;;4963294;28;20228;-51
2022/11/10 07:45:56;;;;;;;1.10;1.10;;;;;;;;;;4957423;28;20252;-51
2022/11/10 07:48:22;;;;;;;1.20;1.20;;;;;;;;;;4955843;28;20258;-51
2022/11/10 07:50:49;;;;;;;1.30;1.30;;;;;;;;;;4959677;28;20229;-51
2022/11/10 07:53:16;;;;;;;1.17;1.17;;;;;;;;;;4963532;28;20242;-51
2022/11/10 07:55:42;;;;;;;1.20;1.20;;;;;;;;;;4958196;28;20700;-53
2022/11/10 07:58:08;;;;;;;1.30;1.30;;;;;;;;;;4962457;28;20218;-53
2022/11/10 08:00:34;;;;;;;1.03;1.03;;;;;;;;;;4963650;28;20289;-52
2022/11/10 08:03:07;;;;;;;1.30;1.30;;;;;;;;;;4957768;28;20750;-52
2022/11/10 08:05:33;;;;;;;1.30;1.30;;;;;;;;;;4937255;28;20248;-53
2022/11/10 08:07:59;;;;;;;1.20;1.20;;;;;;;;;;4971819;28;20325;-52
2022/11/10 08:10:25;;;;;;;1.10;1.10;;;;;;;;;;4961953;28;20238;-53
2022/11/10 08:12:55;;;;;;;1.10;1.10;;;;;;;;;;4960070;28;20245;-52
2022/11/10 08:15:21;;;;;;;1.23;1.23;;;;;;;;;;4965289;28;20225;-52
2022/11/10 08:17:47;;;;;;;1.00;1.00;;;;;;;;;;4955823;28;20253;-53
2022/11/10 08:20:13;;;;;;;1.10;1.10;;;;;;;;;;4957255;28;20314;-53
2022/11/10 08:22:39;;;;;;;1.10;1.10;;;;;;;;;;4964709;28;20284;-52
2022/11/10 08:25:06;;;;;;;1.20;1.20;;;;;;;;;;4942332;28;20215;-52
2022/11/10 08:27:31;;;;;;;1.20;1.20;;;;;;;;;;4957006;28;20237;-53
2022/11/10 08:29:57;;;;;;;1.10;1.10;;;;;;;;;;4950137;28;20885;-52
2022/11/10 08:32:23;;;;;;;1.10;1.10;;;;;;;;;;4954072;28;20698;-53
2022/11/10 08:34:49;;;;;;;1.20;1.20;;;;;;;;;;4922611;28;20229;-52
2022/11/10 08:37:15;;;;;;;1.10;1.10;;;;;;;;;;4955926;28;20233;-52
2022/11/10 08:39:41;;;;;;;1.20;1.20;;;;;;;;;;4960582;28;20262;-52
2022/11/10 08:42:07;;;;;;;1.00;1.00;;;;;;;;;;4947780;28;20684;-52
2022/11/10 08:44:33;;;;;;;1.07;1.07;;;;;;;;;;4949796;28;20251;-53
2022/11/10 08:46:59;;;;;;;1.20;1.20;;;;;;;;;;4959865;28;20645;-52
2022/11/10 08:49:25;;;;;;;1.00;1.00;;;;;;;;;;4972235;28;20792;-53
2022/11/10 08:51:51;;;;;;;1.10;1.10;;;;;;;;;;4949430;28;20243;-52
2022/11/10 08:54:17;;;;;;;1.10;1.10;;;;;;;;;;4937420;28;20221;-53
2022/11/10 08:56:43;;;;;;;1.10;1.10;;;;;;;;;;4962001;28;20227;-53
2022/11/10 08:59:09;;;;;;;1.10;1.10;;;;;;;;;;4959552;28;20290;-53
2022/11/10 09:01:34;;;;;;;1.10;1.10;;;;;;;;;;4957576;28;20253;-53
2022/11/10 09:04:01;;;;;;;1.10;1.10;;;;;;;;;;4950012;28;20298;-52
2022/11/10 09:06:27;;;;;;;1.13;1.13;;;;;;;;;;4962080;28;20232;-53
2022/11/10 09:08:53;;;;;;;1.10;1.10;;;;;;;;;;4968373;28;20258;-53
2022/11/10 09:11:19;;;;;;;1.10;1.10;;;;;;;;;;4969113;28;20293;-53
2022/11/10 09:13:45;;;;;;;1.20;1.20;;;;;;;;;;4953686;28;20230;-53
2022/11/10 09:16:10;;;;;;;1.10;1.10;;;;;;;;;;4956841;28;21581;-53
2022/11/10 09:18:36;;;;;;;1.90;1.80;;;;;;;;;;4959582;28;20219;-53
2022/11/10 09:21:05;;;;;;;1.60;1.60;;;;;;;;;;4965413;28;20234;-53
2022/11/10 09:23:31;;;;;;;1.50;1.50;;;;;;;;;;4969217;28;20236;-53
2022/11/10 09:25:57;;;;;;;1.20;1.20;;;;;;;;;;4960480;28;21538;-53
2022/11/10 09:28:23;;;;;;;1.10;1.10;;;;;;;;;;4965794;28;20829;-53
2022/11/10 09:30:49;;;;;;;1.23;1.23;;;;;;;;;;4968331;28;20242;-52
2022/11/10 09:33:15;;;;;;;1.10;1.10;;;;;;;;;;4955498;28;20655;-53
2022/11/10 09:35:41;;;;;;;1.53;1.53;;;;;;;;;;4957313;28;20227;-52
2022/11/10 09:38:07;;;;;;;1.00;1.00;;;;;;;;;;4963884;28;20214;-53
2022/11/10 09:40:33;;;;;;;1.40;1.40;;;;;;;;;;4964735;28;20269;-52
2022/11/10 09:42:59;;;;;;;1.60;1.60;;;;;;;;;;4953164;28;20233;-53
2022/11/10 09:45:29;;;;;;;1.10;1.10;;;;;;;;;;4972969;28;20218;-53
2022/11/10 09:47:57;;;;;;;1.03;1.03;;;;;;;;;;4956750;28;20294;-53
2022/11/10 09:50:27;;;;;;;1.90;1.80;;;;;;;;;;4958687;28;20223;-53
2022/11/10 09:52:53;;;;;;;1.17;1.17;;;;;;;;;;4938406;28;20230;-53
2022/11/10 09:55:38;;;;;;;0.80;0.80;;;;;;;;;;4973349;28;20266;-53
2022/11/10 09:58:04;;;;;;;1.03;1.03;;;;;;;;;;4973610;28;20223;-53
2022/11/10 10:00:30;;;;;;;1.00;1.00;;;;;;;;;;4975322;28;20214;-53
2022/11/10 10:03:01;;;;;;;1.17;1.17;;;;;;;;;;4957802;28;20238;-53
2022/11/10 10:05:34;;;;;;;1.00;1.00;;;;;;;;;;4966115;28;20218;-53
2022/11/10 10:08:07;;;;;;;1.10;1.10;;;;;;;;;;4950286;28;20742;-53
2022/11/10 10:10:39;;;;;;;2.00;1.90;;;;;;;;;;4937211;28;20623;-52
2022/11/10 10:13:23;;;;;;;2.07;1.97;;;;;;;;;;4966177;28;20240;-53
2022/11/10 10:15:54;;;;;;;2.00;1.90;;;;;;;;;;4971448;28;20722;-53
2022/11/10 10:18:20;;;;;;;1.60;1.60;;;;;;;;;;4957734;28;20691;-53
2022/11/10 10:20:55;;;;;;;2.10;2.00;;;;;;;;;;4963061;28;20220;-53
2022/11/10 10:23:47;;;;;;;2.00;1.90;;;;;;;;;;4962511;28;20307;-53
2022/11/10 10:26:13;;;;;;;1.50;1.50;;;;;;;;;;4968987;28;20266;-53
2022/11/10 10:28:40;;;;;;;1.40;1.40;;;;;;;;;;4958513;28;20260;-53
2022/11/10 10:31:26;;;;;;;1.60;1.60;;;;;;;;;;4966857;28;20296;-53
2022/11/10 10:33:52;;;;;;;1.20;1.20;;;;;;;;;;4951575;28;20226;-54
2022/11/10 10:36:19;;;;;;;1.38;1.38;;;;;;;;;;4958874;28;20237;-53
2022/11/10 10:38:45;;;;;;;1.50;1.50;;;;;;;;;;4977363;28;20222;-53
2022/11/10 10:41:13;;;;;;;1.15;1.15;;;;;;;;;;4979623;28;20222;-53
2022/11/10 10:43:41;;;;;;;1.13;1.13;;;;;;;;;;4970874;28;20221;-53
2022/11/10 10:46:07;;;;;;;0.80;0.80;;;;;;;;;;4960504;28;20231;-54
2022/11/10 10:48:33;;;;;;;1.05;1.05;;;;;;;;;;4976546;28;20770;-54
2022/11/10 10:50:59;;;;;;;0.90;0.90;;;;;;;;;;4973558;28;20299;-54
2022/11/10 10:53:25;;;;;;;0.80;0.80;;;;;;;;;;4965804;28;20658;-53
2022/11/10 10:55:51;;;;;;;1.00;1.00;;;;;;;;;;4965771;28;20227;-54
2022/11/10 10:58:27;;;;;;;1.67;1.67;;;;;;;;;;4959184;28;20231;-54
2022/11/10 11:00:54;;;;;;;1.40;1.40;;;;;;;;;;4972087;28;20229;-53
2022/11/10 11:03:25;;;;;;;1.42;1.42;;;;;;;;;;4979040;28;20242;-52
2022/11/10 11:06:01;;;;;;;1.42;1.42;;;;;;;;;;4971845;28;20811;-53
2022/11/10 11:08:27;;;;;;;1.35;1.35;;;;;;;;;;4978180;28;20218;-53
2022/11/10 11:10:53;;;;;;;1.80;1.70;;;;;;;;;;4977934;28;20311;-53
2022/11/10 11:13:25;;;;;;;1.65;1.65;;;;;;;;;;4973105;28;20709;-53
2022/11/10 11:15:58;;;;;;;1.90;1.80;;;;;;;;;;4975371;28;20231;-53
2022/11/10 11:18:24;;;;;;;2.00;1.90;;;;;;;;;;4973008;28;20233;-53
2022/11/10 11:20:50;;;;;;;2.00;1.90;;;;;;;;;;4952912;28;20230;-53
2022/11/10 11:23:19;;;;;;;1.73;1.70;;;;;;;;;;4962553;28;20223;-53
2022/11/10 11:25:45;;;;;;;2.10;2.00;;;;;;;;;;4949424;28;20369;-53
2022/11/10 11:28:20;;;;;;;1.60;1.60;;;;;;;;;;4979834;28;20278;-53
2022/11/10 11:31:04;;;;;;;1.90;1.80;;;;;;;;;;4978035;28;20231;-53
2022/11/10 11:33:30;;;;;;;1.60;1.60;;;;;;;;;;4976215;28;20226;-53
2022/11/10 11:35:57;;;;;;;2.17;2.08;;;;;;;;;;4968807;28;20227;-53
2022/11/10 11:38:28;;;;;;;2.00;1.90;;;;;;;;;;4953540;28;20278;-53
2022/11/10 11:41:00;;;;;;;2.00;1.90;;;;;;;;;;4964730;28;20229;-53
2022/11/10 11:43:29;;;;;;;1.40;1.40;;;;;;;;;;4961637;28;20251;-52
2022/11/10 11:46:13;;;;;;;1.90;1.80;;;;;;;;;;4974676;28;20254;-53
2022/11/10 11:48:56;;;;;;;1.60;1.60;;;;;;;;;;4942742;28;20282;-52
2022/11/10 11:51:22;;;;;;;2.05;1.95;;;;;;;;;;4958920;28;20244;-52
2022/11/10 11:54:07;;;;;;;1.98;1.88;;;;;;;;;;4977077;28;20234;-53
2022/11/10 11:56:34;;;;;;;1.70;1.70;;;;;;;;;;4971529;28;20473;-53
2022/11/10 11:59:10;;;;;;;1.80;1.70;;;;;;;;;;4945731;28;20284;-53
2022/11/10 12:01:46;;;;;;;2.00;1.90;;;;;;;;;;4930822;28;20342;-53
2022/11/10 12:04:30;;;;;;;2.00;1.90;;;;;;;;;;4986601;28;20224;-53
2022/11/10 12:07:05;;;;;;;2.00;1.90;;;;;;;;;;4975723;28;20224;-53
2022/11/10 12:09:43;;;;;;;2.28;2.17;;;;;;;;;;4974504;28;20229;-53
2022/11/10 12:12:18;;;;;;;1.83;1.73;;;;;;;;;;4951722;28;20301;-53
2022/11/10 12:14:54;;;;;;;1.95;1.85;;;;;;;;;;4967011;28;20231;-53
2022/11/10 12:17:42;;;;;;;2.20;2.10;;;;;;;;;;4945332;28;20233;-52
2022/11/10 12:20:20;;;;;;;1.90;1.80;;;;;;;;;;4952018;28;20339;-53
2022/11/10 12:22:53;;;;;;;2.00;1.90;;;;;;;;;;4971400;28;20658;-53
2022/11/10 12:25:30;;;;;;;2.10;2.00;;;;;;;;;;4957717;28;20472;-53
2022/11/10 12:28:00;;;;;;;2.10;2.00;;;;;;;;;;4951996;28;20237;-52
2022/11/10 12:30:26;;;;;;;1.83;1.73;;;;;;;;;;4964091;28;20226;-53
2022/11/10 12:33:16;;;;;;;1.50;1.50;;;;;;;;;;4959469;28;20287;-53
2022/11/10 12:35:42;;;;;;;1.60;1.60;;;;;;;;;;4960515;28;20611;-53
2022/11/10 12:38:11;;;;;;;1.90;1.80;;;;;;;;;;4954730;28;20268;-53
2022/11/10 12:40:38;;;;;;;1.70;1.70;;;;;;;;;;4988067;28;20591;-53
2022/11/10 12:43:06;;;;;;;1.70;1.70;;;;;;;;;;4974383;28;20221;-53
2022/11/10 12:45:35;;;;;;;1.60;1.60;;;;;;;;;;4962273;28;20554;-53
2022/11/10 12:48:01;;;;;;;1.70;1.70;;;;;;;;;;4957434;28;20223;-53
2022/11/10 12:50:33;;;;;;;1.90;1.80;;;;;;;;;;4983562;28;20221;-53
2022/11/10 12:53:01;;;;;;;1.70;1.70;;;;;;;;;;4981670;28;20241;-53
2022/11/10 12:55:38;;;;;;;1.50;1.50;;;;;;;;;;4959462;28;20653;-53
2022/11/10 12:58:04;;;;;;;1.83;1.75;;;;;;;;;;4970845;28;20222;-53
2022/11/10 13:00:31;;;;;;;1.60;1.60;;;;;;;;;;4995494;28;21028;-53
2022/11/10 13:02:57;;;;;;;1.80;1.70;;;;;;;;;;4966039;28;20218;-53
2022/11/10 13:05:26;;;;;;;1.55;1.55;;;;;;;;;;4979438;28;20226;-53
2022/11/10 13:08:04;;;;;;;1.97;1.87;;;;;;;;;;4995069;28;20230;-53
2022/11/10 13:10:30;;;;;;;1.60;1.60;;;;;;;;;;4959294;28;21168;-53
2022/11/10 13:13:00;;;;;;;1.80;1.70;;;;;;;;;;4979349;28;20241;-52
2022/11/10 13:15:32;;;;;;;1.60;1.60;;;;;;;;;;4965244;28;20223;-53
2022/11/10 13:17:57;;;;;;;1.70;1.70;;;;;;;;;;4988351;28;20250;-53
2022/11/10 13:20:39;;;;;;;1.90;1.80;;;;;;;;;;4986831;28;20257;-53
2022/11/10 13:23:21;;;;;;;1.70;1.70;;;;;;;;;;4994815;28;20230;-53
2022/11/10 13:25:53;;;;;;;2.00;1.90;;;;;;;;;;4988626;28;20233;-53
2022/11/10 13:28:38;;;;;;;1.70;1.70;;;;;;;;;;4982804;28;20218;-53
2022/11/10 13:31:24;;;;;;;1.95;1.85;;;;;;;;;;4978265;28;20323;-53
2022/11/10 13:34:02;;;;;;;1.80;1.70;;;;;;;;;;4969093;28;20667;-53
2022/11/10 13:36:38;;;;;;;2.40;2.30;;;;;;;;;;4993688;28;20225;-53
2022/11/10 13:39:21;;;;;;;2.40;2.30;;;;;;;;;;4972933;28;20228;-53
2022/11/10 13:41:51;;;;;;;2.40;2.30;;;;;;;;;;4966848;28;20225;-53
2022/11/10 13:44:22;;;;;;;2.10;2.00;;;;;;;;;;4947672;28;20235;-52
2022/11/10 13:47:09;;;;;;;2.10;2.00;;;;;;;;;;4968244;28;20253;-53
2022/11/10 13:49:54;;;;;;;1.90;1.80;;;;;;;;;;4974657;28;20229;-53
2022/11/10 13:52:24;;;;;;;1.90;1.80;;;;;;;;;;4984281;28;20333;-53
2022/11/10 13:55:06;;;;;;;2.03;1.93;;;;;;;;;;4960343;28;20229;-53
2022/11/10 13:57:38;;;;;;;1.90;1.80;;;;;;;;;;4947029;28;20316;-53
2022/11/10 14:00:15;;;;;;;2.08;1.98;;;;;;;;;;4975351;28;20250;-53
2022/11/10 14:02:48;;;;;;;2.13;2.03;;;;;;;;;;4966492;28;20225;-52
2022/11/10 14:05:37;;;;;;;2.00;1.90;;;;;;;;;;4968716;28;20264;-52
2022/11/10 14:08:09;;;;;;;2.00;1.90;;;;;;;;;;4965148;28;20235;-52
2022/11/10 14:10:55;;;;;;;2.10;2.00;;;;;;;;;;4972385;28;20310;-52
2022/11/10 14:13:27;;;;;;;1.70;1.70;;;;;;;;;;4973312;28;20600;-52
2022/11/10 14:15:53;;;;;;;1.50;1.50;;;;;;;;;;4962282;28;21031;-53
2022/11/10 14:18:23;;;;;;;1.60;1.60;;;;;;;;;;4966360;28;20221;-52
2022/11/10 14:21:08;;;;;;;1.80;1.70;;;;;;;;;;4964494;28;20232;-53
2022/11/10 14:23:42;;;;;;;1.60;1.60;;;;;;;;;;4944769;28;20599;-52
2022/11/10 14:26:11;;;;;;;1.60;1.60;;;;;;;;;;4955484;28;20219;-52
2022/11/10 14:28:37;;;;;;;1.60;1.60;;;;;;;;;;4948339;28;20725;-52
2022/11/10 14:31:03;;;;;;;1.50;1.50;;;;;;;;;;4970540;28;20564;-52
2022/11/10 14:33:29;;;;;;;1.70;1.70;;;;;;;;;;4973486;28;20353;-52
2022/11/10 14:36:02;;;;;;;1.70;1.70;;;;;;;;;;4974854;28;20225;-53
2022/11/10 14:38:32;;;;;;;1.70;1.70;;;;;;;;;;4959020;28;20237;-56
2022/11/10 14:40:58;;;;;;;1.37;1.37;;;;;;;;;;4946748;28;20335;-51
2022/11/10 14:43:25;;;;;;;0.80;0.80;;;;;;;;;;4917982;28;20285;-53
2022/11/10 14:45:52;;;;;;;0.90;0.90;;;;;;;;;;4934997;28;20247;-53
2022/11/10 14:48:18;;;;;;;0.80;0.80;;;;;;;;;;4936115;28;20224;-58
2022/11/10 14:50:44;;;;;;;0.80;0.80;;;;;;;;;;4956124;28;20806;-55
2022/11/10 14:53:20;;;;;;;0.70;0.70;;;;;;;;;;4959326;28;20710;-55
2022/11/10 14:55:46;;;;;;;0.80;0.80;;;;;;;;;;4936409;28;20309;-55
2022/11/10 14:58:13;;;;;;;0.80;0.80;;;;;;;;;;4957871;28;20297;-55
2022/11/10 15:00:40;;;;;;;0.80;0.80;;;;;;;;;;4946971;28;20686;-55
2022/11/10 15:03:06;;;;;;;0.80;0.80;;;;;;;;;;4953473;28;20223;-55
2022/11/10 15:05:32;;;;;;;0.80;0.80;;;;;;;;;;4932256;28;20312;-55
2022/11/10 15:07:58;;;;;;;0.80;0.80;;;;;;;;;;4959627;28;20235;-55